This is the latest recevied weather packets stored in our database for station/object KN4AN. If no packets are shown the sender has not sent any weather packets the latest 10 day(s).
| Time | Temp. | Humidity | Pressure | Rain* | Wind** | Luminosity | Snow |
|---|---|---|---|---|---|---|---|
| 1787864815 | 25.56° C | 86% | 1014.4 hPa | 0 mm | - | 298 W/m² | - |
| 1787864514 | 25.56° C | 87% | 1014.4 hPa | 0 mm | - | 247 W/m² | - |
| 1787864209 | 25° C | 87% | 1014.4 hPa | 0 mm | - | 303 W/m² | - |
| 1787863904 | 25° C | 89% | 1014.5 hPa | 0 mm | - | 286 W/m² | - |
| 1787863602 | 24.44° C | 89% | 1014.6 hPa | 0 mm | - | 353 W/m² | - |
| 1787863296 | 24.44° C | 88% | 1014.7 hPa | 0 mm | - | 165 W/m² | - |
| 1787862993 | 25° C | 91% | 1014.8 hPa | 0 mm | - | 114 W/m² | - |
| 1787862687 | 24.44° C | 91% | 1014.9 hPa | 0 mm | - | 109 W/m² | - |
| 1787862383 | 24.44° C | 91% | 1014.7 hPa | 0 mm | - | 118 W/m² | - |
| 1787862078 | 24.44° C | 92% | 1014.6 hPa | 0 mm | - | 122 W/m² | - |
| 1787861778 | 24.44° C | 92% | 1014.8 hPa | 0 mm | - | 107 W/m² | - |
| 1787861476 | 24.44° C | 90% | 1014.9 hPa | 0 mm | - | 91 W/m² | - |
| 1787861171 | 24.44° C | 90% | 1014.8 hPa | 1.78 mm | - | 88 W/m² | - |
| 1787860870 | 24.44° C | 91% | 1014.8 hPa | 1.78 mm | - | 91 W/m² | - |
| 1787860565 | 24.44° C | 92% | 1014.8 hPa | 0 mm | - | 97 W/m² | - |
| 1787860260 | 24.44° C | 92% | 1014.8 hPa | 0 mm | - | 92 W/m² | - |
| 1787859955 | 25° C | 91% | 1014.7 hPa | 1.27 mm | - | 78 W/m² | - |
| 1787859651 | 25° C | 90% | 1015 hPa | 6.1 mm | - | 80 W/m² | - |
| 1787859349 | 25.56° C | 86% | 1014.8 hPa | 8.89 mm | - | 75 W/m² | - |
| 1787859046 | 27.22° C | 80% | 1015.1 hPa | 11.94 mm | - | 70 W/m² | - |
| 1787858742 | 27.78° C | 76% | 1015.4 hPa | 4.32 mm | - | 58 W/m² | - |
| 1787858438 | 28.33° C | 67% | 1015.3 hPa | 0 mm | - | 48 W/m² | - |
| 1787858137 | 28.89° C | 64% | 1015.2 hPa | 0 mm | - | 59 W/m² | - |
| 1787857833 | 28.89° C | 64% | 1015.1 hPa | 0 mm | - | 89 W/m² | - |
| 1787857528 | 29.44° C | 64% | 1015.1 hPa | 0 mm | - | 145 W/m² | - |
* Rain latest hour (hover to see other rain measurements)
** Current wind speed in m/s (hover to see current wind gust speed)